Time;durP1;ratioP1;P1;durP2;ratioP2;P2;SDS_P1;SDS_P2;PMS_P1;PMS_P2;Temp;Humidity;BMP_temperature;BMP_pressure;BME280_temperature;BME280_humidity;BME280_pressure;Samples;Min_cycle;Max_cycle;Signal;HPM_P1;HPM_P2
2022/08/31 00:06:18;;;;;;;2.47;2.20;;;20.90;67.50;;;;;;4981148;28;20624;-82
2022/08/31 00:08:45;;;;;;;2.90;1.90;;;20.80;68.90;;;;;;4989685;28;20639;-81
2022/08/31 00:11:13;;;;;;;3.27;2.60;;;20.70;70.00;;;;;;4989586;28;20656;-82
2022/08/31 00:13:42;;;;;;;2.50;2.30;;;20.70;68.60;;;;;;4990022;28;20640;-82
2022/08/31 00:16:10;;;;;;;4.83;1.97;;;20.70;70.20;;;;;;4989031;28;20699;-81
2022/08/31 00:18:38;;;;;;;2.83;2.23;;;20.60;69.80;;;;;;4988812;28;20651;-82
2022/08/31 00:21:05;;;;;;;2.40;2.20;;;20.60;70.10;;;;;;4989234;28;20989;-81
2022/08/31 00:23:32;;;;;;;3.43;3.10;;;20.60;70.50;;;;;;4988943;28;20644;-82
2022/08/31 00:25:59;;;;;;;2.50;2.30;;;20.50;70.90;;;;;;4989652;28;20728;-81
2022/08/31 00:28:25;;;;;;;3.70;2.47;;;20.50;70.10;;;;;;4988501;28;20955;-82
2022/08/31 00:30:54;;;;;;;2.13;1.83;;;20.40;70.00;;;;;;4988905;28;20764;-82
2022/08/31 00:33:21;;;;;;;2.33;1.90;;;20.20;70.60;;;;;;4987377;28;20757;-81
2022/08/31 00:35:48;;;;;;;2.50;2.30;;;20.10;70.70;;;;;;4988029;28;20688;-81
2022/08/31 00:38:15;;;;;;;4.17;2.30;;;20.10;70.70;;;;;;4988757;28;20752;-81
2022/08/31 00:40:44;;;;;;;1.93;1.70;;;20.10;70.70;;;;;;4988801;28;21302;-82
2022/08/31 00:43:12;;;;;;;4.53;2.37;;;20.10;71.70;;;;;;4987962;28;20633;-82
2022/08/31 00:45:39;;;;;;;3.20;2.90;;;19.90;76.70;;;;;;4988273;28;20693;-82
2022/08/31 00:48:07;;;;;;;2.87;2.67;;;19.90;77.20;;;;;;4988306;28;20647;-81
2022/08/31 00:50:34;;;;;;;2.73;2.10;;;19.60;81.80;;;;;;4988865;28;21115;-81
2022/08/31 00:53:02;;;;;;;3.23;2.77;;;19.20;88.90;;;;;;4989296;28;20736;-81
2022/08/31 00:55:33;;;;;;;2.33;2.03;;;18.80;91.90;;;;;;4988396;28;20732;-81
2022/08/31 00:58:03;;;;;;;3.47;3.17;;;18.50;94.80;;;;;;4987893;28;20661;-81
2022/08/31 01:00:31;;;;;;;3.03;2.70;;;18.30;96.70;;;;;;4988274;28;20633;-81
2022/08/31 01:03:01;;;;;;;2.23;2.03;;;18.10;97.50;;;;;;4988932;28;20649;-81
2022/08/31 01:05:31;;;;;;;2.77;2.57;;;18.20;98.60;;;;;;4988587;28;20668;-81
2022/08/31 01:08:00;;;;;;;3.20;2.47;;;18.20;99.10;;;;;;4988553;28;20736;-81
2022/08/31 01:10:31;;;;;;;2.77;2.57;;;18.00;99.80;;;;;;4988816;28;21096;-82
2022/08/31 01:12:59;;;;;;;6.93;2.37;;;18.00;99.90;;;;;;4989164;28;21183;-81
2022/08/31 01:15:29;;;;;;;2.80;2.60;;;18.30;99.90;;;;;;4988180;28;21191;-81
2022/08/31 01:18:00;;;;;;;2.87;2.67;;;18.00;99.90;;;;;;4988518;28;20645;-80
2022/08/31 01:20:36;;;;;;;3.67;2.57;;;17.90;99.90;;;;;;4989403;28;20613;-80
2022/08/31 01:23:10;;;;;;;2.63;2.17;;;17.80;99.90;;;;;;4988118;28;20629;-81
2022/08/31 01:25:41;;;;;;;3.30;2.60;;;17.70;99.90;;;;;;4988359;28;20671;-81
2022/08/31 01:28:09;;;;;;;4.40;3.00;;;17.80;99.90;;;;;;4986846;28;20617;-81
2022/08/31 01:30:37;;;;;;;3.70;3.40;;;17.80;99.90;;;;;;4987434;28;20667;-81
2022/08/31 01:33:04;;;;;;;3.53;2.43;;;17.80;99.90;;;;;;4987985;28;20648;-81
2022/08/31 01:35:33;;;;;;;3.73;3.00;;;17.90;99.90;;;;;;4985848;28;20661;-82
2022/08/31 01:38:02;;;;;;;3.03;2.77;;;18.00;99.90;;;;;;4987664;28;20773;-81
2022/08/31 01:40:34;;;;;;;3.53;3.23;;;17.70;99.90;;;;;;4988212;28;20728;-81
2022/08/31 01:43:03;;;;;;;3.60;2.83;;;17.60;99.90;;;;;;4988927;28;20628;-81
2022/08/31 01:45:30;;;;;;;3.43;3.03;;;17.60;99.90;;;;;;4990718;28;20835;-81
2022/08/31 01:47:59;;;;;;;3.93;2.93;;;17.40;99.90;;;;;;4987383;28;21520;-81
2022/08/31 01:50:27;;;;;;;4.43;3.30;;;17.40;99.90;;;;;;4987878;28;21025;-80
2022/08/31 01:52:55;;;;;;;3.63;2.80;;;17.40;99.90;;;;;;4987644;28;20625;-81
2022/08/31 01:55:23;;;;;;;4.27;3.60;;;17.30;99.90;;;;;;4988027;28;20637;-81
2022/08/31 01:57:52;;;;;;;3.40;2.90;;;17.30;99.90;;;;;;4987538;28;20736;-81
2022/08/31 02:00:21;;;;;;;3.13;2.70;;;17.20;99.90;;;;;;4987767;28;20656;-81
2022/08/31 02:02:47;;;;;;;4.00;3.60;;;17.20;99.90;;;;;;4986963;28;20644;-81
2022/08/31 02:05:14;;;;;;;3.60;3.30;;;17.10;99.90;;;;;;4987524;28;20632;-80
2022/08/31 02:07:42;;;;;;;3.90;3.10;;;17.20;99.90;;;;;;4987514;28;21232;-80
2022/08/31 02:10:09;;;;;;;4.30;3.90;;;17.20;99.90;;;;;;4988078;28;20621;-80
2022/08/31 02:12:36;;;;;;;4.87;3.60;;;17.20;99.90;;;;;;4987313;28;20633;-80
2022/08/31 02:15:06;;;;;;;6.03;2.97;;;17.20;99.90;;;;;;4988050;28;20631;-80
2022/08/31 02:17:34;;;;;;;3.10;2.80;;;17.30;99.90;;;;;;4986463;28;20629;-80
2022/08/31 02:20:01;;;;;;;4.33;3.50;;;17.30;99.90;;;;;;4988021;28;20679;-80
2022/08/31 02:22:28;;;;;;;3.97;2.97;;;17.20;99.90;;;;;;4987637;28;20617;-80
2022/08/31 02:24:56;;;;;;;4.03;3.60;;;17.20;99.90;;;;;;4988377;28;20619;-79
2022/08/31 02:27:23;;;;;;;4.00;3.37;;;17.20;99.90;;;;;;4986928;28;20750;-80
2022/08/31 02:29:50;;;;;;;5.53;3.77;;;17.20;99.90;;;;;;4987530;28;20614;-79
2022/08/31 02:32:20;;;;;;;5.07;4.57;;;17.20;99.90;;;;;;4987112;28;21113;-80
2022/08/31 02:34:47;;;;;;;3.93;3.63;;;17.10;99.90;;;;;;4986616;28;21234;-79
2022/08/31 02:37:15;;;;;;;3.30;3.10;;;17.30;99.90;;;;;;4986747;28;20716;-79
2022/08/31 02:39:43;;;;;;;3.10;2.80;;;17.20;99.90;;;;;;4988658;28;20669;-79
2022/08/31 02:42:11;;;;;;;5.30;3.73;;;17.00;99.90;;;;;;4990990;28;20669;-80
2022/08/31 02:44:39;;;;;;;3.40;3.10;;;17.00;99.90;;;;;;4990730;28;20662;-80
2022/08/31 02:47:06;;;;;;;4.47;4.03;;;16.90;99.90;;;;;;4990897;28;20632;-80
2022/08/31 02:49:35;;;;;;;7.50;4.43;;;17.00;99.90;;;;;;4991172;28;21071;-80
2022/08/31 02:52:03;;;;;;;4.43;4.00;;;17.10;99.90;;;;;;4990891;28;20629;-80
2022/08/31 02:54:31;;;;;;;4.33;4.03;;;17.20;99.90;;;;;;4990803;28;20637;-80
2022/08/31 02:56:59;;;;;;;5.23;4.37;;;17.20;99.90;;;;;;4990228;28;21289;-79
2022/08/31 02:59:27;;;;;;;5.70;4.10;;;17.20;99.90;;;;;;4990923;28;20759;-79
2022/08/31 03:01:55;;;;;;;7.37;3.93;;;17.10;99.90;;;;;;4990678;28;20731;-79
2022/08/31 03:04:21;;;;;;;4.37;3.60;;;17.00;99.90;;;;;;4990876;28;21371;-79
2022/08/31 03:06:50;;;;;;;4.33;3.90;;;16.90;99.90;;;;;;4989746;28;20718;-79
2022/08/31 03:09:17;;;;;;;3.77;3.30;;;16.90;99.90;;;;;;4990779;28;20657;-79
2022/08/31 03:11:44;;;;;;;5.63;3.80;;;16.90;99.90;;;;;;4990264;28;20647;-79
2022/08/31 03:14:11;;;;;;;4.87;3.80;;;16.90;99.90;;;;;;4990541;28;21265;-78
2022/08/31 03:16:39;;;;;;;6.00;3.87;;;17.00;99.90;;;;;;4990012;28;20732;-79
2022/08/31 03:19:06;;;;;;;4.03;3.37;;;17.10;99.90;;;;;;4990667;28;21319;-79
2022/08/31 03:21:33;;;;;;;4.40;3.37;;;17.00;99.90;;;;;;4990103;28;20731;-79
2022/08/31 03:24:01;;;;;;;4.50;3.50;;;17.00;99.90;;;;;;4990490;28;20733;-79
2022/08/31 03:26:28;;;;;;;4.83;4.43;;;17.00;99.90;;;;;;4990014;28;20675;-79
2022/08/31 03:28:55;;;;;;;4.37;3.97;;;17.00;99.90;;;;;;4990223;28;20660;-79
2022/08/31 03:31:22;;;;;;;5.30;3.60;;;;;;;;;;4989379;28;21321;-79
2022/08/31 03:33:49;;;;;;;5.13;4.40;;;17.00;99.90;;;;;;4989901;28;20675;-79
2022/08/31 03:36:16;;;;;;;4.40;3.60;;;17.00;99.90;;;;;;4987715;28;20672;-80
2022/08/31 03:38:43;;;;;;;4.90;4.13;;;17.00;99.90;;;;;;4990027;28;20940;-79
2022/08/31 03:41:14;;;;;;;4.23;3.80;;;17.00;99.90;;;;;;4990061;28;20628;-79
2022/08/31 03:43:41;;;;;;;4.70;3.50;;;17.00;99.90;;;;;;4988696;28;20629;-79
2022/08/31 03:46:08;;;;;;;4.57;3.13;;;16.90;99.90;;;;;;4990255;28;20698;-79
2022/08/31 03:48:35;;;;;;;4.00;3.50;;;16.90;99.90;;;;;;4989257;28;20876;-79
2022/08/31 03:51:02;;;;;;;5.20;4.03;;;16.90;99.90;;;;;;4988664;28;20744;-79
2022/08/31 03:53:29;;;;;;;4.40;4.00;;;16.80;99.90;;;;;;4989911;28;20729;-79
2022/08/31 03:56:00;;;;;;;6.50;3.80;;;16.80;99.90;;;;;;4990084;28;21206;-79
2022/08/31 03:58:29;;;;;;;5.90;4.03;;;16.90;99.90;;;;;;4988972;28;20995;-79
2022/08/31 04:00:56;;;;;;;4.00;3.20;;;16.90;99.90;;;;;;4987056;28;20638;-79
2022/08/31 04:03:24;;;;;;;5.77;4.80;;;17.10;99.90;;;;;;4989547;28;20633;-79
2022/08/31 04:05:50;;;;;;;6.27;5.30;;;17.00;99.90;;;;;;4990283;28;20725;-79
2022/08/31 04:08:19;;;;;;;5.10;4.10;;;16.90;99.90;;;;;;4989554;28;20663;-80
2022/08/31 04:10:48;;;;;;;5.30;4.37;;;16.80;99.90;;;;;;4990253;28;20633;-79
2022/08/31 04:13:15;;;;;;;5.23;3.57;;;16.80;99.90;;;;;;4989911;28;20641;-79
2022/08/31 04:15:45;;;;;;;5.97;4.70;;;16.80;99.90;;;;;;4990186;28;20755;-79
2022/08/31 04:18:12;;;;;;;4.77;3.77;;;16.90;99.90;;;;;;4989713;28;20629;-79
2022/08/31 04:20:40;;;;;;;4.27;3.83;;;16.80;99.90;;;;;;4990969;28;20731;-79
2022/08/31 04:23:08;;;;;;;6.30;4.40;;;16.90;99.90;;;;;;4990308;28;20636;-80
2022/08/31 04:25:38;;;;;;;4.70;4.20;;;16.90;99.90;;;;;;4992048;28;20633;-79
2022/08/31 04:28:07;;;;;;;3.17;2.87;;;16.90;99.90;;;;;;4994487;28;20621;-80
2022/08/31 04:30:37;;;;;;;5.20;4.53;;;16.80;99.90;;;;;;4994925;28;20629;-79
2022/08/31 04:33:05;;;;;;;4.47;4.07;;;16.80;99.90;;;;;;4995693;28;20659;-80
2022/08/31 04:35:32;;;;;;;6.30;4.17;;;16.80;99.90;;;;;;4994761;28;21061;-80
2022/08/31 04:37:58;;;;;;;3.90;3.00;;;16.80;99.90;;;;;;4994253;28;20691;-80
2022/08/31 04:40:25;;;;;;;7.80;3.90;;;16.80;99.90;;;;;;4994267;28;20772;-80
2022/08/31 04:42:52;;;;;;;3.07;2.73;;;16.90;99.90;;;;;;4991802;28;20629;-80
2022/08/31 04:45:19;;;;;;;5.00;4.50;;;16.90;99.90;;;;;;4991776;28;20660;-80
2022/08/31 04:47:46;;;;;;;3.67;3.30;;;;;;;;;;4991059;28;20724;-80
2022/08/31 04:50:15;;;;;;;4.93;4.03;;;16.80;99.90;;;;;;4990396;28;20640;-80
2022/08/31 04:52:42;;;;;;;5.13;3.50;;;16.80;99.90;;;;;;4989610;28;20632;-80
2022/08/31 04:55:11;;;;;;;4.33;3.97;;;16.90;99.90;;;;;;4989448;28;20665;-80
2022/08/31 04:57:39;;;;;;;5.60;4.33;;;17.00;99.90;;;;;;4988380;28;20732;-80
2022/08/31 05:00:08;;;;;;;8.17;4.20;;;17.00;99.90;;;;;;4989638;28;20676;-80
2022/08/31 05:02:35;;;;;;;5.00;4.50;;;17.10;99.90;;;;;;4987749;28;20629;-80
2022/08/31 05:05:03;;;;;;;6.20;4.33;;;17.00;99.90;;;;;;4982976;28;20652;-79
2022/08/31 05:07:31;;;;;;;4.03;3.63;;;17.00;99.90;;;;;;4989555;28;20637;-80
2022/08/31 05:09:58;;;;;;;4.60;4.20;;;17.00;99.90;;;;;;4981686;28;20705;-80
2022/08/31 05:12:25;;;;;;;4.00;3.40;;;16.70;99.90;;;;;;4983194;28;20649;-80
2022/08/31 05:14:52;;;;;;;5.03;4.00;;;16.90;99.90;;;;;;4987271;28;21296;-80
2022/08/31 05:17:19;;;;;;;5.63;3.77;;;16.90;99.90;;;;;;4987020;28;20625;-79
2022/08/31 05:19:46;;;;;;;6.20;4.00;;;16.90;99.90;;;;;;4987483;28;20652;-80
2022/08/31 05:22:13;;;;;;;5.07;4.00;;;16.90;99.90;;;;;;4989174;28;20676;-81
2022/08/31 05:24:41;;;;;;;4.33;3.60;;;16.90;99.90;;;;;;4987727;28;20673;-80
2022/08/31 05:27:08;;;;;;;4.13;3.10;;;16.90;99.90;;;;;;4988360;28;20645;-80
2022/08/31 05:29:35;;;;;;;4.00;3.50;;;16.90;99.90;;;;;;4988977;28;20629;-80
2022/08/31 05:32:02;;;;;;;4.47;3.90;;;16.90;99.90;;;;;;4989569;28;20637;-80
2022/08/31 05:34:29;;;;;;;4.17;3.87;;;16.90;99.90;;;;;;4987779;28;20657;-80
2022/08/31 05:36:57;;;;;;;7.87;4.40;;;16.90;99.90;;;;;;4987973;28;20765;-80
2022/08/31 05:39:24;;;;;;;4.70;4.30;;;16.90;99.90;;;;;;4989972;28;20768;-80
2022/08/31 05:41:54;;;;;;;4.33;3.93;;;16.90;99.90;;;;;;4990026;28;20625;-80
2022/08/31 05:44:21;;;;;;;3.13;2.83;;;17.20;99.90;;;;;;4990155;28;20625;-81
2022/08/31 05:46:48;;;;;;;3.63;3.20;;;16.90;99.90;;;;;;4989356;28;20613;-80
2022/08/31 05:49:15;;;;;;;4.60;4.20;;;;;;;;;;4990406;28;20699;-80
2022/08/31 05:51:42;;;;;;;4.03;3.57;;;16.90;99.90;;;;;;4990480;28;20625;-80
2022/08/31 05:54:09;;;;;;;4.37;3.63;;;16.90;99.90;;;;;;4989742;28;20616;-80
2022/08/31 05:56:37;;;;;;;4.00;3.70;;;17.00;99.90;;;;;;4989419;28;21019;-80
2022/08/31 05:59:05;;;;;;;4.87;3.90;;;17.00;99.90;;;;;;4989517;28;20701;-80
2022/08/31 06:01:34;;;;;;;4.40;3.23;;;17.00;99.90;;;;;;4989402;28;21260;-80
2022/08/31 06:04:01;;;;;;;4.67;3.80;;;17.00;99.90;;;;;;4989835;28;20708;-80
2022/08/31 06:06:29;;;;;;;3.87;3.43;;;16.90;99.90;;;;;;4988645;28;20720;-80
2022/08/31 06:08:57;;;;;;;4.87;3.60;;;16.90;99.90;;;;;;4989574;28;21200;-80
2022/08/31 06:11:26;;;;;;;3.97;3.43;;;16.90;99.90;;;;;;4989194;28;20740;-80
2022/08/31 06:13:55;;;;;;;6.97;3.80;;;16.90;99.90;;;;;;4988592;28;20712;-80
2022/08/31 06:16:23;;;;;;;4.37;3.07;;;16.90;99.90;;;;;;4991447;28;20729;-80
2022/08/31 06:18:51;;;;;;;3.37;3.10;;;17.00;99.90;;;;;;4992462;28;21103;-80
2022/08/31 06:21:20;;;;;;;4.17;3.77;;;17.10;99.90;;;;;;4992119;28;20676;-81
2022/08/31 06:23:49;;;;;;;3.00;2.70;;;17.00;99.90;;;;;;4991797;28;20888;-80
2022/08/31 06:26:19;;;;;;;3.73;3.43;;;17.00;99.90;;;;;;4991853;28;20617;-82
2022/08/31 06:28:48;;;;;;;3.40;3.10;;;17.00;99.90;;;;;;4992833;28;20711;-80
2022/08/31 06:31:19;;;;;;;5.30;3.57;;;17.00;99.90;;;;;;4991874;28;20628;-81
2022/08/31 06:33:47;;;;;;;3.03;2.77;;;17.00;99.90;;;;;;4991195;28;20633;-80
2022/08/31 06:36:16;;;;;;;3.30;3.00;;;17.00;99.90;;;;;;4989364;28;21133;-81
2022/08/31 06:38:43;;;;;;;3.43;3.10;;;17.00;99.90;;;;;;4990703;28;21072;-80
2022/08/31 06:41:13;;;;;;;3.33;3.03;;;17.00;99.90;;;;;;4991730;28;20771;-80
2022/08/31 06:43:40;;;;;;;4.77;3.43;;;17.00;99.90;;;;;;4991597;28;21155;-80
2022/08/31 06:46:07;;;;;;;5.27;3.43;;;16.90;99.90;;;;;;4992168;28;20679;-80
2022/08/31 06:48:35;;;;;;;3.70;3.13;;;16.90;99.90;;;;;;4991549;28;20724;-80
2022/08/31 06:51:05;;;;;;;4.10;3.73;;;16.90;99.90;;;;;;4992427;28;20708;-80
2022/08/31 06:53:32;;;;;;;2.93;2.73;;;16.90;99.90;;;;;;4992534;28;20633;-80
2022/08/31 06:56:04;;;;;;;3.80;3.47;;;16.90;99.90;;;;;;4992056;28;20683;-80
2022/08/31 06:58:31;;;;;;;4.77;4.27;;;16.90;99.90;;;;;;4991277;28;21197;-79
2022/08/31 07:00:58;;;;;;;3.93;3.57;;;16.80;99.90;;;;;;4992839;28;20672;-80
2022/08/31 07:03:31;;;;;;;6.60;3.60;;;16.80;99.90;;;;;;4991341;28;21280;-80
2022/08/31 07:06:03;;;;;;;5.00;3.70;;;16.80;99.90;;;;;;4992045;28;20714;-80
2022/08/31 07:08:32;;;;;;;3.97;3.57;;;16.80;99.90;;;;;;4990595;28;20652;-80
2022/08/31 07:10:59;;;;;;;4.37;3.97;;;16.80;99.90;;;;;;4990707;28;20625;-80
2022/08/31 07:13:26;;;;;;;5.90;4.10;;;16.80;99.90;;;;;;4991952;28;20612;-80
2022/08/31 07:16:02;;;;;;;3.23;2.93;;;16.90;99.90;;;;;;4991417;28;20621;-80
2022/08/31 07:18:29;;;;;;;3.70;3.40;;;16.90;99.90;;;;;;4991383;28;20725;-80
2022/08/31 07:21:05;;;;;;;4.17;3.43;;;16.90;99.90;;;;;;4992153;28;20728;-81
2022/08/31 07:23:34;;;;;;;4.60;3.40;;;16.90;99.90;;;;;;4991253;28;20617;-80
2022/08/31 07:26:04;;;;;;;4.30;3.90;;;16.90;99.90;;;;;;4992253;28;21047;-80
2022/08/31 07:28:32;;;;;;;4.17;3.37;;;16.90;99.90;;;;;;4990804;28;20627;-79
2022/08/31 07:30:59;;;;;;;3.23;2.73;;;16.90;99.90;;;;;;4992042;28;20628;-80
2022/08/31 07:33:26;;;;;;;4.73;3.37;;;16.90;99.90;;;;;;4992104;28;21006;-80
2022/08/31 07:35:53;;;;;;;4.83;3.33;;;;;;;;;;4990991;28;20720;-80
2022/08/31 07:43:58;;;;;;;3.03;2.73;;;16.90;99.90;;;;;;4991745;28;21053;-80
2022/08/31 07:46:28;;;;;;;3.20;2.83;;;17.00;99.90;;;;;;4989775;28;20639;-81
2022/08/31 07:48:55;;;;;;;3.60;3.30;;;17.00;99.90;;;;;;4991393;28;20644;-80
2022/08/31 07:51:23;;;;;;;4.90;3.97;;;16.90;99.90;;;;;;4990526;28;20647;-80
2022/08/31 07:53:50;;;;;;;3.53;3.20;;;16.90;99.90;;;;;;4991309;28;20617;-80
2022/08/31 07:56:19;;;;;;;4.80;4.13;;;16.90;99.90;;;;;;4989941;28;20656;-80
2022/08/31 07:58:46;;;;;;;4.20;3.40;;;16.90;99.90;;;;;;4991612;28;20660;-80
2022/08/31 08:01:14;;;;;;;5.97;4.37;;;16.90;99.90;;;;;;4990095;28;20841;-80
2022/08/31 08:03:43;;;;;;;4.10;3.70;;;16.90;99.90;;;;;;4990421;28;21209;-80
2022/08/31 08:06:13;;;;;;;3.67;3.33;;;16.90;99.90;;;;;;4990384;28;20972;-80
2022/08/31 08:08:42;;;;;;;3.27;2.97;;;16.90;99.90;;;;;;4990450;28;20683;-80
2022/08/31 08:11:09;;;;;;;4.80;3.90;;;16.90;99.90;;;;;;4991023;28;20635;-80
2022/08/31 08:13:37;;;;;;;4.27;3.20;;;16.80;99.90;;;;;;4990045;28;21370;-80
2022/08/31 08:16:04;;;;;;;3.63;3.23;;;16.90;99.90;;;;;;4990396;28;20637;-80
2022/08/31 08:18:31;;;;;;;3.97;3.43;;;16.90;99.90;;;;;;4990219;28;20679;-80
2022/08/31 08:20:58;;;;;;;6.20;3.90;;;16.80;99.90;;;;;;4990806;28;20728;-80
2022/08/31 08:23:25;;;;;;;4.70;3.10;;;16.90;99.90;;;;;;4990824;28;20988;-80
2022/08/31 08:25:52;;;;;;;3.93;3.60;;;16.90;99.90;;;;;;4990465;28;20629;-80
2022/08/31 08:28:20;;;;;;;5.20;4.10;;;16.90;99.90;;;;;;4988738;28;20629;-80
2022/08/31 08:30:53;;;;;;;4.30;3.90;;;16.90;99.90;;;;;;4990847;28;20637;-80
2022/08/31 08:33:20;;;;;;;4.50;3.57;;;16.90;99.90;;;;;;4990883;28;20633;-80
2022/08/31 08:35:55;;;;;;;4.73;4.33;;;17.10;99.90;;;;;;4991125;28;20786;-80
2022/08/31 08:38:22;;;;;;;4.97;4.57;;;17.10;99.90;;;;;;4987836;28;20625;-80
2022/08/31 08:40:50;;;;;;;4.50;4.10;;;17.20;99.90;;;;;;4990994;28;20810;-80
2022/08/31 08:43:19;;;;;;;6.60;5.23;;;17.10;99.90;;;;;;4990861;28;21179;-81
2022/08/31 08:45:51;;;;;;;3.47;3.10;;;17.10;99.90;;;;;;4990693;28;20613;-81
2022/08/31 08:48:23;;;;;;;3.97;3.63;;;17.10;99.90;;;;;;4989970;28;20625;-80
2022/08/31 08:50:52;;;;;;;3.40;3.10;;;17.20;99.90;;;;;;4990847;28;20641;-80
2022/08/31 08:53:22;;;;;;;4.10;3.67;;;17.20;99.90;;;;;;4990484;28;20625;-81
2022/08/31 08:55:50;;;;;;;4.07;3.03;;;17.00;99.90;;;;;;4990889;28;21050;-80
2022/08/31 08:58:18;;;;;;;4.40;4.00;;;17.20;99.90;;;;;;4989721;28;20617;-80
2022/08/31 09:00:52;;;;;;;4.73;4.33;;;17.20;99.90;;;;;;4990644;28;20668;-80
2022/08/31 09:03:29;;;;;;;4.80;4.13;;;17.20;99.90;;;;;;4990237;28;20683;-80
2022/08/31 09:06:05;;;;;;;4.03;3.60;;;17.30;99.90;;;;;;4990433;28;20660;-80
2022/08/31 09:09:09;;;;;;;4.50;3.60;;;17.30;99.90;;;;;;4990211;28;20629;-80
2022/08/31 09:11:45;;;;;;;3.63;3.33;;;17.20;99.90;;;;;;4977574;28;20707;-80
2022/08/31 09:14:25;;;;;;;4.53;3.87;;;17.30;99.90;;;;;;4990392;28;20656;-80
2022/08/31 09:17:03;;;;;;;4.47;4.07;;;17.20;99.90;;;;;;4988637;28;21139;-80
2022/08/31 09:19:57;;;;;;;5.57;4.57;;;17.20;99.90;;;;;;4990482;28;20617;-80
2022/08/31 09:22:18;;;;;;;4.57;3.87;;;17.30;99.90;;;;;;4989420;28;20672;-80
2022/08/31 09:24:50;;;;;;;5.60;4.00;;;17.30;99.90;;;;;;4991522;28;20628;-80
2022/08/31 09:27:37;;;;;;;4.07;3.60;;;17.30;99.90;;;;;;4989467;28;20625;-81
2022/08/31 09:30:06;;;;;;;5.90;4.60;;;17.40;99.90;;;;;;4988922;28;21004;-80
2022/08/31 09:32:36;;;;;;;3.73;3.43;;;17.50;99.90;;;;;;4988608;28;20629;-80
2022/08/31 09:35:06;;;;;;;5.63;4.17;;;17.50;99.90;;;;;;4990133;28;20625;-80
2022/08/31 09:37:39;;;;;;;4.90;3.60;;;17.50;99.90;;;;;;4987861;28;20729;-80
2022/08/31 09:40:16;;;;;;;4.50;4.07;;;17.70;99.90;;;;;;4989308;28;20621;-80
2022/08/31 09:43:00;;;;;;;5.17;4.67;;;17.70;99.90;;;;;;4989925;28;20679;-80
2022/08/31 09:45:34;;;;;;;6.67;5.17;;;17.70;99.90;;;;;;4989612;28;20684;-80
2022/08/31 09:48:03;;;;;;;5.27;4.20;;;17.80;99.90;;;;;;4989728;28;20712;-79
2022/08/31 09:50:34;;;;;;;5.40;4.70;;;17.80;99.90;;;;;;4993060;28;20740;-80
2022/08/31 09:56:14;;;;;;;6.57;4.87;;;17.90;99.90;;;;;;4994080;28;20601;-79
2022/08/31 09:58:43;;;;;;;4.53;4.13;;;17.70;99.90;;;;;;4993236;28;20664;-79
2022/08/31 10:01:17;;;;;;;4.53;4.10;;;17.70;99.90;;;;;;4993597;28;20779;-80
2022/08/31 10:03:47;;;;;;;4.80;3.77;;;17.80;99.90;;;;;;4993978;28;20623;-80
2022/08/31 10:06:44;;;;;;;4.43;4.03;;;17.80;99.90;;;;;;4993028;28;20636;-80
2022/08/31 10:09:21;;;;;;;6.83;5.70;;;17.80;99.90;;;;;;4993470;28;20672;-80
2022/08/31 10:11:51;;;;;;;4.70;4.30;;;17.70;99.90;;;;;;4993532;28;20617;-80
2022/08/31 10:14:27;;;;;;;5.80;4.40;;;17.80;99.90;;;;;;4992105;28;20621;-80
2022/08/31 10:17:01;;;;;;;4.80;4.40;;;17.70;99.90;;;;;;4992285;28;21194;-80
2022/08/31 10:19:39;;;;;;;5.27;4.27;;;17.60;99.90;;;;;;4992640;28;20625;-81
2022/08/31 10:22:24;;;;;;;7.97;5.23;;;17.80;99.90;;;;;;4993221;28;20679;-80
2022/08/31 10:25:05;;;;;;;4.30;3.90;;;17.60;99.90;;;;;;4992030;28;20625;-80
2022/08/31 10:27:41;;;;;;;6.27;5.33;;;17.80;99.90;;;;;;4991544;28;20621;-80
2022/08/31 10:30:18;;;;;;;6.13;4.90;;;17.80;99.90;;;;;;4992164;28;20686;-80
2022/08/31 10:32:51;;;;;;;4.67;4.00;;;17.70;99.90;;;;;;4989337;28;20722;-80
2022/08/31 10:35:24;;;;;;;6.00;5.30;;;18.00;99.90;;;;;;4991204;28;20716;-81
2022/08/31 10:38:06;;;;;;;5.97;5.37;;;17.90;99.90;;;;;;4990198;28;20625;-81
2022/08/31 10:40:41;;;;;;;7.00;5.30;;;17.90;99.90;;;;;;4992475;28;20633;-81
2022/08/31 10:43:16;;;;;;;5.73;4.63;;;18.00;99.90;;;;;;4992977;28;21193;-80
2022/08/31 10:45:47;;;;;;;6.00;5.40;;;18.10;99.90;;;;;;4992654;28;20648;-81
2022/08/31 10:48:16;;;;;;;6.10;4.80;;;18.00;99.90;;;;;;4992518;28;20665;-80
2022/08/31 10:50:51;;;;;;;4.77;4.23;;;18.10;99.90;;;;;;4993087;28;20740;-80
2022/08/31 10:53:41;;;;;;;6.30;5.23;;;18.00;99.90;;;;;;4993142;28;20633;-80
2022/08/31 10:56:14;;;;;;;5.93;4.47;;;17.90;99.90;;;;;;4992627;28;20912;-81
2022/08/31 10:58:59;;;;;;;4.40;4.00;;;18.20;99.90;;;;;;4993004;28;20960;-81
2022/08/31 11:01:34;;;;;;;6.70;5.00;;;18.10;99.90;;;;;;4973284;28;20724;-81
2022/08/31 11:04:42;;;;;;;4.87;4.33;;;18.10;99.90;;;;;;4973581;28;20720;-81
2022/08/31 11:07:23;;;;;;;5.93;4.27;;;18.10;99.90;;;;;;4972725;28;20609;-81
2022/08/31 11:09:58;;;;;;;5.47;4.13;;;18.10;99.90;;;;;;4973198;28;20622;-81
2022/08/31 11:12:41;;;;;;;6.13;4.67;;;18.00;99.90;;;;;;4973028;28;20613;-81
2022/08/31 11:15:35;;;;;;;4.10;3.50;;;17.90;99.90;;;;;;4973366;28;20631;-81
2022/08/31 11:18:23;;;;;;;5.50;4.90;;;17.90;99.90;;;;;;4971119;28;20713;-81
2022/08/31 11:21:06;;;;;;;5.87;5.37;;;18.00;99.90;;;;;;4974004;28;20733;-82
2022/08/31 11:24:00;;;;;;;4.07;3.33;;;17.90;99.90;;;;;;4973907;28;20692;-80
2022/08/31 11:26:49;;;;;;;6.33;4.30;;;18.20;99.90;;;;;;4973003;28;20637;-82
2022/08/31 11:29:29;;;;;;;4.57;4.17;;;18.10;99.90;;;;;;4972755;28;20664;-81
2022/08/31 11:32:02;;;;;;;6.30;4.53;;;17.90;99.90;;;;;;4972898;28;20650;-81
2022/08/31 11:34:45;;;;;;;5.77;4.80;;;17.90;99.90;;;;;;4976664;28;20649;-80
2022/08/31 11:37:13;;;;;;;5.43;4.93;;;17.90;99.90;;;;;;4990078;28;21088;-81
2022/08/31 11:39:44;;;;;;;8.73;5.50;;;17.80;99.90;;;;;;4989574;28;20699;-81
2022/08/31 11:42:46;;;;;;;7.83;4.60;;;17.80;99.90;;;;;;4992452;28;20727;-81
2022/08/31 11:45:30;;;;;;;5.60;4.60;;;17.80;99.90;;;;;;4992129;28;20698;-80
2022/08/31 11:47:58;;;;;;;5.90;4.97;;;17.70;99.90;;;;;;4991653;28;20732;-82
2022/08/31 11:51:02;;;;;;;5.37;4.53;;;17.60;99.90;;;;;;4991807;28;20644;-80
2022/08/31 11:53:35;;;;;;;6.20;4.80;;;17.70;99.90;;;;;;4991800;28;20679;-81
2022/08/31 11:56:05;;;;;;;5.47;4.37;;;17.60;99.90;;;;;;4992715;28;20655;-81
2022/08/31 11:58:37;;;;;;;4.40;3.77;;;17.60;99.90;;;;;;4991057;28;20624;-81
2022/08/31 12:01:33;;;;;;;5.80;4.50;;;17.40;99.90;;;;;;4978619;28;20630;-81
2022/08/31 12:04:03;;;;;;;5.27;4.73;;;17.70;99.90;;;;;;4966198;28;21235;-81
2022/08/31 12:07:06;;;;;;;8.13;4.67;;;17.70;99.90;;;;;;4972104;28;20628;-81
2022/08/31 12:09:59;;;;;;;4.23;3.83;;;17.70;99.90;;;;;;4972595;28;20617;-80
2022/08/31 12:12:55;;;;;;;4.90;4.13;;;17.80;99.90;;;;;;4971835;28;21336;-81
2022/08/31 12:15:31;;;;;;;8.20;4.80;;;17.90;99.90;;;;;;4972208;28;20680;-81
2022/08/31 12:18:13;;;;;;;4.30;3.90;;;18.10;99.90;;;;;;4971893;28;20626;-81
2022/08/31 12:23:47;;;;;;;5.60;4.87;;;18.10;99.90;;;;;;4970159;28;20618;-81
2022/08/31 12:26:39;;;;;;;4.73;4.30;;;17.80;99.90;;;;;;4970121;28;21199;-82
2022/08/31 12:29:36;;;;;;;4.37;3.73;;;17.80;99.90;;;;;;4970776;28;20638;-80
2022/08/31 12:32:21;;;;;;;4.20;3.63;;;17.90;99.90;;;;;;4960621;28;20709;-80
2022/08/31 12:34:51;;;;;;;5.53;4.17;;;17.90;99.90;;;;;;4976253;28;20739;-81
2022/08/31 12:37:21;;;;;;;5.10;4.60;;;18.00;99.90;;;;;;4988636;28;20613;-82
2022/08/31 12:39:48;;;;;;;5.63;4.70;;;18.00;99.90;;;;;;4988748;28;20745;-80
2022/08/31 12:42:15;;;;;;;6.00;4.33;;;18.00;99.90;;;;;;4988971;28;20664;-82
2022/08/31 12:44:49;;;;;;;5.20;4.70;;;18.10;99.90;;;;;;4990200;28;20675;-81
2022/08/31 12:47:27;;;;;;;6.57;4.00;;;18.20;99.90;;;;;;4989304;28;20616;-82
2022/08/31 12:50:14;;;;;;;5.53;4.77;;;18.30;99.90;;;;;;4990029;28;21281;-79
2022/08/31 12:53:00;;;;;;;5.03;4.27;;;18.40;99.90;;;;;;4988519;28;20668;-80
2022/08/31 12:55:38;;;;;;;6.20;4.80;;;18.40;99.90;;;;;;4990109;28;20613;-80
2022/08/31 12:58:22;;;;;;;6.00;4.30;;;18.60;99.90;;;;;;4988689;28;20635;-81
2022/08/31 13:00:51;;;;;;;4.70;4.30;;;18.60;99.90;;;;;;4989816;28;21229;-80
2022/08/31 13:03:24;;;;;;;4.93;4.30;;;18.70;99.90;;;;;;4989055;28;20756;-82
2022/08/31 13:06:06;;;;;;;6.27;4.37;;;18.80;99.90;;;;;;4989566;28;20731;-81
2022/08/31 13:08:36;;;;;;;4.33;3.93;;;18.90;99.90;;;;;;4989284;28;20623;-80
2022/08/31 13:11:15;;;;;;;5.90;4.40;;;19.00;99.90;;;;;;4990464;28;21311;-81
2022/08/31 13:13:42;;;;;;;6.67;4.00;;;19.10;99.90;;;;;;4990432;28;21022;-82
2022/08/31 13:16:13;;;;;;;4.23;3.63;;;19.00;99.90;;;;;;4990001;28;20661;-81
2022/08/31 13:18:40;;;;;;;4.73;4.03;;;19.00;99.90;;;;;;4990073;28;20687;-81
2022/08/31 13:21:08;;;;;;;5.43;4.50;;;18.90;99.90;;;;;;4989808;28;21280;-81
2022/08/31 13:23:37;;;;;;;5.80;4.40;;;19.00;99.90;;;;;;4989433;28;21297;-82
2022/08/31 13:26:08;;;;;;;5.73;5.10;;;19.30;99.90;;;;;;4989744;28;20679;-80